Time;durP1;ratioP1;P1;durP2;ratioP2;P2;SDS_P1;SDS_P2;PMS_P1;PMS_P2;Temp;Humidity;BMP_temperature;BMP_pressure;BME280_temperature;BME280_humidity;BME280_pressure;Samples;Min_cycle;Max_cycle;Signal;HPM_P1;HPM_P2
2021/12/15 00:01:30;;;;;;;33.17;10.10;;;;;;;;;;5073472;28;20514;-74
2021/12/15 00:03:56;;;;;;;29.13;10.37;;;;;;;;;;5074615;28;20903;-74
2021/12/15 00:06:22;;;;;;;20.60;9.30;;;;;;;;;;5073518;28;20482;-75
2021/12/15 00:08:50;;;;;;;24.83;8.07;;;;;;;;;;5073460;28;20419;-75
2021/12/15 00:11:16;;;;;;;20.87;8.27;;;;;;;;;;5071963;28;20779;-75
2021/12/15 00:13:43;;;;;;;24.73;9.07;;;;;;;;;;5073452;28;20439;-75
2021/12/15 00:16:10;;;;;;;23.13;9.80;;;;;;;;;;5073047;28;20468;-75
2021/12/15 00:18:41;;;;;;;28.90;9.83;;;;;;;;;;5079226;28;20780;-75
2021/12/15 00:21:07;;;;;;;22.90;8.30;;;;;;;;;;5073402;28;20406;-75
2021/12/15 00:23:33;;;;;;;22.37;9.20;;;;;;;;;;5084356;28;20903;-75
2021/12/15 00:25:59;;;;;;;27.80;9.10;;;;;;;;;;5085557;28;20925;-75
2021/12/15 00:28:25;;;;;;;24.80;9.50;;;;;;;;;;5082392;28;20474;-75
2021/12/15 00:30:51;;;;;;;36.77;10.07;;;;;;;;;;5074678;28;20433;-75
2021/12/15 00:33:17;;;;;;;27.03;9.00;;;;;;;;;;5077725;28;20443;-75
2021/12/15 00:35:43;;;;;;;24.50;9.57;;;;;;;;;;5079634;28;20782;-74
2021/12/15 00:38:10;;;;;;;32.37;10.97;;;;;;;;;;5075635;28;20412;-75
2021/12/15 00:40:37;;;;;;;31.13;10.97;;;;;;;;;;5072887;28;20770;-76
2021/12/15 00:43:03;;;;;;;29.23;11.13;;;;;;;;;;5083478;28;20412;-76
2021/12/15 00:45:29;;;;;;;20.30;9.40;;;;;;;;;;5072788;28;20409;-76
2021/12/15 00:47:55;;;;;;;41.20;11.43;;;;;;;;;;5072464;28;20834;-76
2021/12/15 00:50:27;;;;;;;26.83;9.30;;;;;;;;;;5087593;28;20419;-76
2021/12/15 00:52:54;;;;;;;28.93;10.00;;;;;;;;;;5080565;28;20821;-74
2021/12/15 00:55:21;;;;;;;22.53;8.80;;;;;;;;;;5078685;28;20412;-74
2021/12/15 00:57:47;;;;;;;26.70;10.23;;;;;;;;;;5076790;28;20449;-74
2021/12/15 01:00:15;;;;;;;31.73;10.87;;;;;;;;;;5072862;28;20417;-74
2021/12/15 01:02:41;;;;;;;22.80;10.70;;;;;;;;;;5074082;28;20421;-74
2021/12/15 01:05:09;;;;;;;35.47;9.87;;;;;;;;;;5072432;28;20814;-74
2021/12/15 01:07:35;;;;;;;21.40;9.00;;;;;;;;;;5073933;28;20433;-75
2021/12/15 01:10:01;;;;;;;27.47;10.20;;;;;;;;;;5082483;28;20433;-75
2021/12/15 01:20:29;;;;;;;34.53;11.93;;;;;;;;;;5087425;28;20423;-75
2021/12/15 01:22:56;;;;;;;47.60;12.60;;;;;;;;;;5077298;28;20507;-74
2021/12/15 01:25:24;;;;;;;38.17;9.40;;;;;;;;;;5092943;28;20412;-74
2021/12/15 01:27:51;;;;;;;35.17;11.47;;;;;;;;;;5085623;28;20460;-74
2021/12/15 01:30:19;;;;;;;24.30;9.40;;;;;;;;;;5079919;28;20755;-74
2021/12/15 01:32:45;;;;;;;25.57;10.83;;;;;;;;;;5082452;28;20495;-74
2021/12/15 01:35:11;;;;;;;21.17;8.60;;;;;;;;;;5077364;28;20421;-74
2021/12/15 01:37:37;;;;;;;26.03;10.80;;;;;;;;;;5076329;28;20453;-75
2021/12/15 01:40:04;;;;;;;24.70;9.83;;;;;;;;;;5076028;28;20515;-75
2021/12/15 01:42:33;;;;;;;27.60;10.83;;;;;;;;;;5076046;28;20409;-75
2021/12/15 01:47:44;;;;;;;23.33;10.30;;;;;;;;;;5075980;28;20435;-75
2021/12/15 01:50:11;;;;;;;27.47;10.63;;;;;;;;;;5088408;28;20409;-75
2021/12/15 01:52:38;;;;;;;27.03;11.07;;;;;;;;;;5083076;28;20413;-74
2021/12/15 01:55:12;;;;;;;27.63;10.50;;;;;;;;;;5088715;28;20475;-74
2021/12/15 01:57:38;;;;;;;35.07;11.43;;;;;;;;;;5081481;28;20457;-74
2021/12/15 02:00:08;;;;;;;32.20;11.87;;;;;;;;;;5075683;28;20909;-74
2021/12/15 02:02:34;;;;;;;35.83;12.27;;;;;;;;;;5074148;28;20425;-74
2021/12/15 02:05:00;;;;;;;21.77;9.23;;;;;;;;;;5075991;28;20421;-74
2021/12/15 02:07:26;;;;;;;34.23;11.60;;;;;;;;;;5075816;28;20921;-75
2021/12/15 02:12:26;;;;;;;26.43;10.17;;;;;;;;;;5078973;28;20428;-75
2021/12/15 02:14:52;;;;;;;28.03;11.10;;;;;;;;;;5086321;28;20439;-75
2021/12/15 02:17:18;;;;;;;30.63;11.27;;;;;;;;;;5084315;28;20461;-75
2021/12/15 02:19:45;;;;;;;34.53;11.77;;;;;;;;;;5085502;28;20416;-75
2021/12/15 02:22:11;;;;;;;34.40;13.07;;;;;;;;;;5088078;28;20918;-74
2021/12/15 02:24:39;;;;;;;20.60;10.40;;;;;;;;;;5093843;28;20493;-74
2021/12/15 02:27:06;;;;;;;25.50;10.00;;;;;;;;;;5076672;28;20908;-74
2021/12/15 02:29:38;;;;;;;27.43;10.07;;;;;;;;;;5075193;28;20425;-74
2021/12/15 02:32:16;;;;;;;33.57;11.90;;;;;;;;;;5076477;28;20474;-74
2021/12/15 02:37:14;;;;;;;24.03;10.43;;;;;;;;;;5075101;28;20509;-74
2021/12/15 02:37:44;;;;;;;32.70;10.80;;;;;;;;;;5076542;28;20893;-74
2021/12/15 02:40:12;;;;;;;38.47;10.87;;;;;;;;;;5076635;28;20417;-74
2021/12/15 02:42:40;;;;;;;31.53;10.63;;;;;;;;;;5092052;28;20424;-74
2021/12/15 02:45:07;;;;;;;27.83;10.53;;;;;;;;;;5083584;28;20428;-74
2021/12/15 02:47:34;;;;;;;29.47;10.47;;;;;;;;;;5074631;28;20409;-74
2021/12/15 02:50:01;;;;;;;25.67;10.07;;;;;;;;;;5074573;28;20421;-74
2021/12/15 02:52:27;;;;;;;27.03;10.20;;;;;;;;;;5075302;28;20902;-74
2021/12/15 02:54:54;;;;;;;30.93;10.47;;;;;;;;;;5076782;28;20421;-74
2021/12/15 02:57:20;;;;;;;23.77;9.70;;;;;;;;;;5081183;28;20523;-74
2021/12/15 03:02:57;;;;;;;21.50;9.57;;;;;;;;;;5081939;28;20899;-74
2021/12/15 03:05:27;;;;;;;17.40;8.50;;;;;;;;;;5082409;28;20819;-74
2021/12/15 03:08:19;;;;;;;21.73;10.23;;;;;;;;;;5074530;28;20413;-75
2021/12/15 03:16:12;;;;;;;18.70;8.63;;;;;;;;;;5074286;28;20456;-75
2021/12/15 03:18:38;;;;;;;23.37;9.50;;;;;;;;;;5074123;28;20495;-75
2021/12/15 03:21:07;;;;;;;19.63;8.93;;;;;;;;;;5083235;28;20421;-75
2021/12/15 03:23:51;;;;;;;32.47;10.70;;;;;;;;;;5075489;28;20494;-75
2021/12/15 03:26:20;;;;;;;12.37;7.10;;;;;;;;;;5080204;28;20900;-75
2021/12/15 03:39:22;;;;;;;26.23;9.73;;;;;;;;;;5074159;28;20405;-75
2021/12/15 03:41:55;;;;;;;22.50;8.70;;;;;;;;;;5073577;28;20452;-75
2021/12/15 03:44:22;;;;;;;29.60;9.27;;;;;;;;;;5075042;28;20417;-75
2021/12/15 03:46:48;;;;;;;25.57;9.17;;;;;;;;;;5072686;28;20782;-75
2021/12/15 03:49:14;;;;;;;20.70;8.10;;;;;;;;;;5073300;28;20409;-75
2021/12/15 03:51:40;;;;;;;22.47;9.30;;;;;;;;;;5078901;28;20431;-76
2021/12/15 03:54:06;;;;;;;30.37;10.13;;;;;;;;;;5088126;28;20427;-75
2021/12/15 03:56:35;;;;;;;17.97;8.30;;;;;;;;;;5083206;28;20453;-76
2021/12/15 03:59:01;;;;;;;21.37;9.93;;;;;;;;;;5073230;28;20987;-75
2021/12/15 04:01:27;;;;;;;79.70;16.20;;;;;;;;;;5079823;28;20452;-76
2021/12/15 04:03:54;;;;;;;42.77;11.30;;;;;;;;;;5079029;28;20519;-76
2021/12/15 04:06:23;;;;;;;22.23;9.33;;;;;;;;;;5073589;28;20416;-75
2021/12/15 04:08:49;;;;;;;27.40;9.73;;;;;;;;;;5073233;28;20433;-74
2021/12/15 04:11:16;;;;;;;17.57;8.73;;;;;;;;;;5073169;28;20417;-74
2021/12/15 04:13:42;;;;;;;28.37;9.40;;;;;;;;;;5073272;28;20428;-74
2021/12/15 04:16:15;;;;;;;22.40;8.97;;;;;;;;;;5071760;28;20453;-74
2021/12/15 04:18:41;;;;;;;21.73;9.00;;;;;;;;;;5071868;28;20431;-74
2021/12/15 04:21:07;;;;;;;33.40;9.10;;;;;;;;;;5076262;28;20512;-74
2021/12/15 04:23:34;;;;;;;35.07;11.00;;;;;;;;;;5079602;28;20462;-74
2021/12/15 04:26:00;;;;;;;26.50;8.73;;;;;;;;;;5073218;28;20409;-74
2021/12/15 04:28:28;;;;;;;28.03;9.63;;;;;;;;;;5072759;28;20804;-74
2021/12/15 04:30:55;;;;;;;25.63;9.07;;;;;;;;;;5073552;28;20433;-74
2021/12/15 04:33:24;;;;;;;25.13;9.83;;;;;;;;;;5072841;28;20433;-74
2021/12/15 04:35:53;;;;;;;20.30;8.93;;;;;;;;;;5078954;28;20908;-74
2021/12/15 04:38:20;;;;;;;21.40;8.60;;;;;;;;;;5073121;28;20480;-75
2021/12/15 04:40:46;;;;;;;24.67;9.00;;;;;;;;;;5073053;28;20775;-75
2021/12/15 04:43:12;;;;;;;27.73;10.30;;;;;;;;;;5072773;28;20920;-76
2021/12/15 04:45:38;;;;;;;28.93;10.40;;;;;;;;;;5072833;28;20512;-75
2021/12/15 04:48:04;;;;;;;32.47;9.83;;;;;;;;;;5072104;28;20463;-75
2021/12/15 04:50:31;;;;;;;22.07;9.00;;;;;;;;;;5072429;28;20762;-75
2021/12/15 04:53:00;;;;;;;19.70;8.67;;;;;;;;;;5073119;28;20413;-75
2021/12/15 04:55:28;;;;;;;24.57;10.20;;;;;;;;;;5079657;28;20776;-74
2021/12/15 04:57:54;;;;;;;25.63;10.33;;;;;;;;;;5076051;28;20464;-74
2021/12/15 05:00:22;;;;;;;19.70;9.30;;;;;;;;;;5072794;28;20446;-74
2021/12/15 05:02:50;;;;;;;45.47;11.13;;;;;;;;;;5072140;28;20420;-75
2021/12/15 05:05:16;;;;;;;28.00;9.30;;;;;;;;;;5078037;28;20416;-75
2021/12/15 05:07:42;;;;;;;22.80;10.40;;;;;;;;;;5086646;28;20425;-75
2021/12/15 05:10:08;;;;;;;26.40;9.90;;;;;;;;;;5072801;28;20747;-75
2021/12/15 05:12:35;;;;;;;24.60;9.50;;;;;;;;;;5072390;28;20431;-75
2021/12/15 05:15:02;;;;;;;33.57;11.77;;;;;;;;;;5073505;28;20941;-75
2021/12/15 05:17:28;;;;;;;27.37;10.40;;;;;;;;;;5074982;28;20455;-75
2021/12/15 05:19:58;;;;;;;33.20;10.07;;;;;;;;;;5072563;28;20413;-76
2021/12/15 05:22:25;;;;;;;25.43;9.67;;;;;;;;;;5072643;28;20417;-75
2021/12/15 05:24:51;;;;;;;20.53;9.80;;;;;;;;;;5085257;28;20958;-75
2021/12/15 05:27:18;;;;;;;17.30;8.70;;;;;;;;;;5074748;28;20449;-76
2021/12/15 05:29:45;;;;;;;17.83;8.30;;;;;;;;;;5071240;28;20467;-76
2021/12/15 05:32:11;;;;;;;21.13;9.07;;;;;;;;;;5072297;28;20936;-76
2021/12/15 05:34:39;;;;;;;20.57;9.40;;;;;;;;;;5072636;28;20463;-76
2021/12/15 05:37:05;;;;;;;28.83;11.57;;;;;;;;;;5078568;28;20465;-76
2021/12/15 05:39:32;;;;;;;37.77;9.57;;;;;;;;;;5072852;28;20426;-75
2021/12/15 05:41:58;;;;;;;26.37;9.80;;;;;;;;;;5072141;28;20896;-75
2021/12/15 05:44:24;;;;;;;23.30;10.40;;;;;;;;;;5072159;28;20747;-76
2021/12/15 05:46:51;;;;;;;19.97;9.60;;;;;;;;;;5072362;28;20927;-76
2021/12/15 05:49:17;;;;;;;26.10;8.93;;;;;;;;;;5071852;28;20772;-75
2021/12/15 05:51:43;;;;;;;30.17;10.30;;;;;;;;;;5088382;28;20432;-76
2021/12/15 05:54:10;;;;;;;23.27;9.93;;;;;;;;;;5089351;28;21435;-74
2021/12/15 05:56:36;;;;;;;28.37;10.77;;;;;;;;;;5075600;28;20456;-74
2021/12/15 05:59:03;;;;;;;21.23;9.03;;;;;;;;;;5071891;28;20456;-74
2021/12/15 06:01:29;;;;;;;20.73;8.90;;;;;;;;;;5071924;28;20865;-75
2021/12/15 06:03:56;;;;;;;24.67;10.00;;;;;;;;;;5074964;28;20523;-75
2021/12/15 06:06:22;;;;;;;21.00;9.57;;;;;;;;;;5075824;28;20945;-75
2021/12/15 06:08:48;;;;;;;29.97;11.20;;;;;;;;;;5086198;28;20416;-74
2021/12/15 06:11:14;;;;;;;35.60;11.77;;;;;;;;;;5086231;28;20425;-75
2021/12/15 06:13:40;;;;;;;25.90;11.00;;;;;;;;;;5075352;28;20413;-75
2021/12/15 06:16:07;;;;;;;24.50;10.00;;;;;;;;;;5079816;28;20423;-75
2021/12/15 06:18:33;;;;;;;25.97;9.77;;;;;;;;;;5081333;28;20475;-75
2021/12/15 06:20:59;;;;;;;25.50;9.70;;;;;;;;;;5075667;28;20807;-75
2021/12/15 06:23:27;;;;;;;22.37;9.30;;;;;;;;;;5075865;28;20413;-75
2021/12/15 06:26:00;;;;;;;24.77;10.33;;;;;;;;;;5083003;28;20551;-74
2021/12/15 06:28:27;;;;;;;30.37;10.40;;;;;;;;;;5076623;28;20907;-76
2021/12/15 06:30:53;;;;;;;24.40;10.03;;;;;;;;;;5085437;28;20424;-76
2021/12/15 06:33:19;;;;;;;25.60;9.97;;;;;;;;;;5084599;28;20799;-77
2021/12/15 06:35:52;;;;;;;27.07;10.10;;;;;;;;;;5079683;28;20409;-77
2021/12/15 06:38:19;;;;;;;38.43;11.67;;;;;;;;;;5074764;28;20448;-76
2021/12/15 06:40:45;;;;;;;179.10;25.80;;;;;;;;;;5077214;28;20415;-76
2021/12/15 06:43:11;;;;;;;24.03;9.40;;;;;;;;;;5080690;28;20748;-76
2021/12/15 06:45:50;;;;;;;17.70;9.03;;;;;;;;;;5074982;28;20443;-76
2021/12/15 06:59:15;;;;;;;25.90;9.33;;;;;;;;;;5074572;28;20457;-76
2021/12/15 07:01:42;;;;;;;20.43;9.13;;;;;;;;;;5074467;28;20935;-79
2021/12/15 07:04:08;;;;;;;27.03;10.77;;;;;;;;;;5083619;28;20428;-76
2021/12/15 07:06:34;;;;;;;22.07;9.50;;;;;;;;;;5074478;28;20413;-76
2021/12/15 07:09:00;;;;;;;32.53;11.70;;;;;;;;;;5073946;28;20751;-77
2021/12/15 07:11:26;;;;;;;21.40;8.90;;;;;;;;;;5078649;28;20541;-74
2021/12/15 07:13:52;;;;;;;25.27;9.37;;;;;;;;;;5078469;28;20774;-74
2021/12/15 07:16:19;;;;;;;27.70;9.07;;;;;;;;;;5073856;28;20536;-74
2021/12/15 07:18:53;;;;;;;30.17;10.13;;;;;;;;;;5076153;28;20409;-75
2021/12/15 07:21:22;;;;;;;41.40;12.57;;;;;;;;;;5094070;28;20405;-75
2021/12/15 07:23:51;;;;;;;27.40;11.10;;;;;;;;;;5096128;28;20796;-75
2021/12/15 07:26:18;;;;;;;27.60;10.57;;;;;;;;;;5092579;28;20405;-75
2021/12/15 07:28:44;;;;;;;25.10;10.70;;;;;;;;;;5073767;28;20775;-75
2021/12/15 07:31:10;;;;;;;20.33;10.63;;;;;;;;;;5077236;28;20923;-75
2021/12/15 07:33:36;;;;;;;33.13;9.83;;;;;;;;;;5073631;28;20425;-75
2021/12/15 07:36:04;;;;;;;28.33;10.60;;;;;;;;;;5073642;28;20895;-75
2021/12/15 07:38:30;;;;;;;30.80;10.50;;;;;;;;;;5077676;28;20458;-75
2021/12/15 07:40:56;;;;;;;27.73;9.40;;;;;;;;;;5072726;28;20413;-76
2021/12/15 07:43:26;;;;;;;29.50;11.83;;;;;;;;;;5073350;28;20424;-77
2021/12/15 07:45:56;;;;;;;31.30;11.50;;;;;;;;;;5073349;28;20452;-76
2021/12/15 07:48:23;;;;;;;29.93;10.77;;;;;;;;;;5073252;28;20745;-76
2021/12/15 07:50:50;;;;;;;30.93;11.93;;;;;;;;;;5073432;28;20496;-76
2021/12/15 07:53:18;;;;;;;36.43;12.53;;;;;;;;;;5072041;28;20510;-76
2021/12/15 07:55:44;;;;;;;27.33;11.20;;;;;;;;;;5081825;28;20946;-75
2021/12/15 07:58:10;;;;;;;25.87;11.83;;;;;;;;;;5073861;28;20951;-75
2021/12/15 08:00:39;;;;;;;31.07;10.90;;;;;;;;;;5073293;28;20690;-75
2021/12/15 08:03:06;;;;;;;27.60;10.30;;;;;;;;;;5082002;28;20412;-76
2021/12/15 08:05:32;;;;;;;21.27;9.60;;;;;;;;;;5083596;28;20425;-75
2021/12/15 08:07:58;;;;;;;26.27;11.53;;;;;;;;;;5086734;28;20440;-76
2021/12/15 08:10:24;;;;;;;34.57;11.80;;;;;;;;;;5074180;28;20884;-74
2021/12/15 08:12:51;;;;;;;28.23;11.93;;;;;;;;;;5087118;28;20436;-74
2021/12/15 08:15:18;;;;;;;32.10;11.30;;;;;;;;;;5084333;28;20968;-74
2021/12/15 08:17:48;;;;;;;28.90;12.20;;;;;;;;;;5076993;28;20448;-74
2021/12/15 08:20:15;;;;;;;28.80;12.30;;;;;;;;;;5071412;28;20417;-74
2021/12/15 08:22:41;;;;;;;43.80;13.10;;;;;;;;;;5072845;28;20405;-74
2021/12/15 08:25:08;;;;;;;29.40;10.80;;;;;;;;;;5086954;28;20891;-74
2021/12/15 08:27:34;;;;;;;27.80;11.00;;;;;;;;;;5091765;28;20424;-74
2021/12/15 08:30:00;;;;;;;31.83;11.83;;;;;;;;;;5089188;28;20489;-75
2021/12/15 08:32:26;;;;;;;37.27;12.20;;;;;;;;;;5072520;28;20430;-75
2021/12/15 08:34:52;;;;;;;42.93;14.63;;;;;;;;;;5073123;28;20780;-75
2021/12/15 08:37:18;;;;;;;46.13;13.70;;;;;;;;;;5084267;28;20881;-75
2021/12/15 08:39:45;;;;;;;26.67;11.30;;;;;;;;;;5073185;28;20425;-75
2021/12/15 08:42:12;;;;;;;32.00;12.10;;;;;;;;;;5073007;28;20439;-76
2021/12/15 08:44:38;;;;;;;30.67;11.60;;;;;;;;;;5072501;28;20409;-75
2021/12/15 08:47:05;;;;;;;23.67;10.83;;;;;;;;;;5079862;28;20493;-75
2021/12/15 08:49:32;;;;;;;38.93;13.87;;;;;;;;;;5091152;28;20971;-75
2021/12/15 08:51:58;;;;;;;26.10;12.00;;;;;;;;;;5079526;28;20424;-76
2021/12/15 08:54:24;;;;;;;30.07;12.93;;;;;;;;;;5078846;28;20408;-76
2021/12/15 08:56:50;;;;;;;28.17;11.53;;;;;;;;;;5072631;28;20449;-75
2021/12/15 08:59:18;;;;;;;35.10;11.20;;;;;;;;;;5072376;28;20419;-75
2021/12/15 09:01:45;;;;;;;30.83;10.93;;;;;;;;;;5072499;28;20401;-77
2021/12/15 09:04:11;;;;;;;29.17;12.27;;;;;;;;;;5072346;28;20420;-76
2021/12/15 09:06:39;;;;;;;26.90;10.93;;;;;;;;;;5072606;28;20416;-76
2021/12/15 09:09:06;;;;;;;29.17;12.17;;;;;;;;;;5072817;28;20706;-76
2021/12/15 09:11:32;;;;;;;35.13;12.80;;;;;;;;;;5072750;28;20944;-76
2021/12/15 09:13:59;;;;;;;29.07;11.93;;;;;;;;;;5072486;28;20452;-76
2021/12/15 09:16:26;;;;;;;42.37;12.17;;;;;;;;;;5072563;28;20449;-76
2021/12/15 09:18:52;;;;;;;25.47;11.43;;;;;;;;;;5075241;28;20444;-77
2021/12/15 09:21:20;;;;;;;25.97;12.27;;;;;;;;;;5083051;28;20454;-76
2021/12/15 09:23:46;;;;;;;34.27;14.17;;;;;;;;;;5075804;28;20772;-76
2021/12/15 09:26:12;;;;;;;42.03;14.43;;;;;;;;;;5089024;28;20413;-76
2021/12/15 09:28:38;;;;;;;32.23;13.67;;;;;;;;;;5072551;28;20822;-76
2021/12/15 09:31:06;;;;;;;45.07;13.33;;;;;;;;;;5072540;28;20953;-76
2021/12/15 09:33:33;;;;;;;29.87;12.00;;;;;;;;;;5077467;28;20888;-76
2021/12/15 09:36:00;;;;;;;33.20;13.43;;;;;;;;;;5072573;28;20409;-76
2021/12/15 09:38:26;;;;;;;31.60;13.33;;;;;;;;;;5075938;28;20851;-76
2021/12/15 09:40:54;;;;;;;47.23;12.13;;;;;;;;;;5076060;28;20492;-76
2021/12/15 09:43:21;;;;;;;28.97;12.93;;;;;;;;;;5076503;28;20417;-75
2021/12/15 09:57:05;;;;;;;29.30;12.40;;;;;;;;;;5085215;28;20806;-75
2021/12/15 10:18:57;;;;;;;28.77;12.10;;;;;;;;;;5075472;28;20412;-76
2021/12/15 10:21:27;;;;;;;27.80;11.90;;;;;;;;;;5075299;28;20497;-75
2021/12/15 10:23:53;;;;;;;26.10;12.10;;;;;;;;;;5087088;28;20405;-76
2021/12/15 10:26:21;;;;;;;26.30;13.47;;;;;;;;;;5095398;28;20401;-76
2021/12/15 10:28:52;;;;;;;32.93;12.60;;;;;;;;;;5095579;28;20392;-76
2021/12/15 10:31:20;;;;;;;30.37;12.30;;;;;;;;;;5075106;28;20961;-76
2021/12/15 10:33:48;;;;;;;26.73;12.00;;;;;;;;;;5074840;28;20959;-76
2021/12/15 10:36:16;;;;;;;31.30;12.40;;;;;;;;;;5075106;28;20429;-76
2021/12/15 10:38:45;;;;;;;28.47;12.47;;;;;;;;;;5074885;28;20406;-75
2021/12/15 10:41:13;;;;;;;22.10;11.03;;;;;;;;;;5074984;28;20433;-76
2021/12/15 10:43:45;;;;;;;30.73;11.73;;;;;;;;;;5075097;28;20397;-76
2021/12/15 10:46:11;;;;;;;27.73;11.37;;;;;;;;;;5074860;28;20405;-76
2021/12/15 10:48:45;;;;;;;23.33;11.10;;;;;;;;;;5072539;28;20443;-75
2021/12/15 10:51:18;;;;;;;28.83;10.87;;;;;;;;;;5074647;28;20371;-76
2021/12/15 10:53:44;;;;;;;19.90;9.50;;;;;;;;;;5074331;28;20493;-76
2021/12/15 10:56:14;;;;;;;23.90;10.67;;;;;;;;;;5085429;28;20430;-76
2021/12/15 10:58:42;;;;;;;31.93;10.97;;;;;;;;;;5084442;28;20433;-75
2021/12/15 11:01:31;;;;;;;31.73;11.47;;;9.80;1.00;;;;;;5077443;28;20524;-76
2021/12/15 11:04:00;;;;;;;29.80;10.57;;;;;;;;;;5080533;28;20418;-76
2021/12/15 11:06:32;;;;;;;28.03;10.50;;;;;;;;;;5078291;28;20444;-76
2021/12/15 11:09:18;;;;;;;34.53;12.00;;;;;;;;;;5089876;28;20814;-75
2021/12/15 11:11:58;;;;;;;33.20;11.00;;;;;;;;;;5074319;28;20463;-77
2021/12/15 11:14:29;;;;;;;43.87;13.40;;;;;;;;;;5078224;28;20448;-74
2021/12/15 11:17:15;;;;;;;19.77;8.17;;;9.60;1.00;;;;;;5080671;28;20467;-74
2021/12/15 11:19:41;;;;;;;28.17;10.63;;;;;;;;;;5081635;28;20412;-74
2021/12/15 11:22:33;;;;;;;26.53;9.40;;;9.60;1.00;;;;;;5077680;28;20412;-75
2021/12/15 11:25:13;;;;;;;23.20;9.80;;;;;;;;;;5080634;28;20431;-74
2021/12/15 11:27:40;;;;;;;25.60;10.37;;;;;;;;;;5077328;28;20419;-74
2021/12/15 11:30:10;;;;;;;26.90;10.87;;;;;;;;;;5077875;28;20429;-74
2021/12/15 11:32:41;;;;;;;24.33;8.77;;;;;;;;;;5082832;28;20426;-74
2021/12/15 11:35:10;;;;;;;23.80;8.67;;;;;;;;;;5082780;28;20794;-74
2021/12/15 11:38:03;;;;;;;19.70;8.73;;;9.80;1.00;;;;;;5071830;28;20453;-74
2021/12/15 11:40:34;;;;;;;28.37;9.93;;;;;;;;;;5014708;28;20440;-74
2021/12/15 11:43:01;;;;;;;26.43;8.73;;;;;;;;;;4991737;28;20900;-75
2021/12/15 11:45:28;;;;;;;21.60;8.83;;;;;;;;;;4997789;28;20443;-76
2021/12/15 11:48:11;;;;;;;42.93;10.87;;;;;;;;;;5011157;28;20420;-76
2021/12/15 11:50:41;;;;;;;21.37;8.87;;;;;;;;;;5006577;28;20456;-76
2021/12/15 11:53:12;;;;;;;16.27;7.50;;;;;;;;;;5003559;28;20455;-76
2021/12/15 11:55:39;;;;;;;19.80;8.17;;;;;;;;;;5001909;28;20420;-76
2021/12/15 11:58:05;;;;;;;16.03;8.07;;;;;;;;;;4995189;28;20514;-75
2021/12/15 12:00:32;;;;;;;18.50;7.90;;;;;;;;;;5010547;28;20817;-75
2021/12/15 12:02:59;;;;;;;25.90;8.87;;;;;;;;;;5011277;28;20420;-76
2021/12/15 12:05:30;;;;;;;42.57;10.50;;;;;;;;;;5008799;28;20520;-75
2021/12/15 12:08:00;;;;;;;14.60;7.47;;;;;;;;;;4999580;28;20431;-76
2021/12/15 12:10:33;;;;;;;29.17;9.53;;;;;;;;;;5007931;28;20836;-76
2021/12/15 12:13:09;;;;;;;26.23;8.23;;;;;;;;;;5010707;28;20436;-75
2021/12/15 12:15:39;;;;;;;36.27;10.67;;;;;;;;;;5009603;28;20440;-76
2021/12/15 12:18:08;;;;;;;24.93;8.70;;;;;;;;;;5059142;28;20496;-75
2021/12/15 12:20:43;;;;;;;20.10;7.87;;;;;;;;;;5085121;28;20454;-76
2021/12/15 12:23:10;;;;;;;18.07;7.87;;;;;;;;;;5072893;28;20409;-76
2021/12/15 12:25:40;;;;;;;25.27;8.17;;;;;;;;;;5077832;28;20436;-76
2021/12/15 12:28:08;;;;;;;20.50;7.97;;;;;;;;;;5088892;28;20419;-74
2021/12/15 12:30:39;;;;;;;20.80;7.33;;;;;;;;;;5079657;28;20437;-74
2021/12/15 12:33:09;;;;;;;15.13;7.00;;;;;;;;;;5082276;28;20448;-74
2021/12/15 12:35:36;;;;;;;16.13;7.60;;;;;;;;;;5083367;28;20871;-74
2021/12/15 12:38:06;;;;;;;16.47;7.03;;;;;;;;;;5091871;28;20452;-74
2021/12/15 12:40:35;;;;;;;19.20;7.10;;;;;;;;;;5075007;28;20500;-74
2021/12/15 12:43:16;;;;;;;15.93;6.77;;;;;;;;;;5073237;28;20441;-74
2021/12/15 12:45:42;;;;;;;12.37;5.33;;;;;;;;;;5072498;28;20743;-75
2021/12/15 12:59:24;;;;;;;14.43;4.93;;;;;;;;;;5084155;28;20407;-76
2021/12/15 13:01:50;;;;;;;12.10;4.70;;;;;;;;;;5080676;28;20775;-76
2021/12/15 13:04:16;;;;;;;15.27;4.90;;;;;;;;;;5072229;28;20523;-76
2021/12/15 13:06:43;;;;;;;13.47;4.90;;;;;;;;;;5072242;28;20417;-76
2021/12/15 13:09:15;;;;;;;16.83;4.97;;;;;;;;;;5072369;28;20407;-76
2021/12/15 13:11:43;;;;;;;27.83;6.43;;;;;;;;;;5084240;28;20474;-76
2021/12/15 13:14:09;;;;;;;10.67;4.30;;;;;;;;;;5076845;28;20421;-74
2021/12/15 13:16:41;;;;;;;80.53;11.40;;;;;;;;;;5088132;28;20574;-74
2021/12/15 13:19:13;;;;;;;14.43;5.80;;;;;;;;;;5083938;28;20417;-74
2021/12/15 13:21:46;;;;;;;13.70;5.90;;;;;;;;;;5088219;28;20418;-74
2021/12/15 13:28:40;;;;;;;14.47;5.80;;;;;;;;;;5076864;28;20411;-74
2021/12/15 13:30:02;;;;;;;17.70;5.97;;;;;;;;;;5076796;28;20431;-75
2021/12/15 13:32:31;;;;;;;12.57;5.07;;;;;;;;;;5076066;28;20436;-75
2021/12/15 13:34:57;;;;;;;11.33;5.57;;;;;;;;;;5076377;28;20425;-75
2021/12/15 13:37:49;;;;;;;22.40;6.57;;;;;;;;;;5075827;28;20441;-74
2021/12/15 13:40:15;;;;;;;15.97;5.27;;;;;;;;;;5076860;28;20912;-74
2021/12/15 13:42:53;;;;;;;88.40;12.43;;;;;;;;;;5056246;28;20458;-74
2021/12/15 13:45:26;;;;;;;16.97;6.40;;;;;;;;;;5080934;28;21690;-74
2021/12/15 13:47:53;;;;;;;17.33;5.40;;;;;;;;;;5082490;28;20424;-74
2021/12/15 13:50:21;;;;;;;19.07;6.07;;;;;;;;;;5077089;28;20413;-74
2021/12/15 13:52:53;;;;;;;18.43;6.23;;;;;;;;;;5084043;28;20432;-75
2021/12/15 13:55:22;;;;;;;10.40;5.20;;;;;;;;;;5085059;28;20511;-75
2021/12/15 13:57:56;;;;;;;44.10;9.50;;;;;;;;;;5087547;28;20860;-74
2021/12/15 14:00:42;;;;;;;16.27;6.37;;;;;;;;;;5084677;28;20413;-75
2021/12/15 14:03:15;;;;;;;17.87;7.20;;;;;;;;;;5085283;28;20413;-76
2021/12/15 14:06:12;;;;;;;16.90;7.00;;;10.40;1.00;;;;;;5084893;28;20451;-81
2021/12/15 14:08:46;;;;;;;11.73;5.50;;;;;;;;;;5008838;28;20541;-79
2021/12/15 14:11:21;;;;;;;26.83;7.00;;;;;;;;;;4994531;28;20440;-80
2021/12/15 14:13:58;;;;;;;9.10;5.00;;;;;;;;;;5003326;28;20793;-80
2021/12/15 14:16:42;;;;;;;18.03;6.57;;;;;;;;;;5011781;28;20538;-76
2021/12/15 14:19:10;;;;;;;25.47;7.00;;;;;;;;;;4997879;28;20426;-76
2021/12/15 14:21:38;;;;;;;19.73;6.70;;;;;;;;;;4994583;28;20466;-74
2021/12/15 14:24:05;;;;;;;14.20;6.20;;;;;;;;;;5007093;28;20430;-74
2021/12/15 14:26:33;;;;;;;19.33;6.87;;;;;;;;;;5004030;28;20429;-74
2021/12/15 14:29:01;;;;;;;18.83;6.80;;;;;;;;;;4998837;28;20429;-74
2021/12/15 14:31:29;;;;;;;27.20;7.87;;;;;;;;;;4997876;28;20455;-74
2021/12/15 14:33:57;;;;;;;21.67;7.17;;;;;;;;;;5000257;28;20432;-74
2021/12/15 14:36:34;;;;;;;17.40;6.33;;;;;;;;;;5011286;28;20428;-74
2021/12/15 14:39:19;;;;;;;16.80;7.47;;;;;;;;;;5000133;28;20415;-74
2021/12/15 14:41:47;;;;;;;22.27;7.23;;;;;;;;;;4998799;28;20413;-74
2021/12/15 14:44:29;;;;;;;29.10;8.20;;;;;;;;;;5013189;28;20433;-74
2021/12/15 14:47:00;;;;;;;22.30;7.20;;;;;;;;;;5081137;28;20740;-78
2021/12/15 14:49:40;;;;;;;13.93;6.60;;;;;;;;;;5091931;28;20415;-78
2021/12/15 14:52:09;;;;;;;22.50;7.57;;;;;;;;;;5085544;28;20416;-78
2021/12/15 14:54:35;;;;;;;15.23;6.10;;;;;;;;;;5086312;28;20412;-78
2021/12/15 14:57:08;;;;;;;21.40;7.50;;;;;;;;;;5085336;28;20603;-78
2021/12/15 14:59:47;;;;;;;11.27;6.00;;;;;;;;;;5077639;28;20397;-78
2021/12/15 15:02:15;;;;;;;25.73;7.30;;;;;;;;;;5076982;28;20409;-78
2021/12/15 15:04:44;;;;;;;15.60;6.10;;;;;;;;;;5084703;28;20747;-78
2021/12/15 15:07:12;;;;;;;19.73;6.90;;;;;;;;;;5076441;28;20416;-78
2021/12/15 15:09:40;;;;;;;13.33;5.80;;;;;;;;;;5083830;28;20413;-78
2021/12/15 15:12:10;;;;;;;19.07;6.27;;;;;;;;;;5077257;28;20476;-78
2021/12/15 15:14:37;;;;;;;20.87;6.90;;;;;;;;;;5085120;28;20508;-78
2021/12/15 15:17:05;;;;;;;25.43;8.33;;;;;;;;;;5076784;28;20445;-74
2021/12/15 15:19:39;;;;;;;16.17;7.70;;;;;;;;;;5081488;28;20431;-74
2021/12/15 15:22:06;;;;;;;26.33;7.73;;;;;;;;;;5080677;28;20435;-74
2021/12/15 15:24:33;;;;;;;18.00;6.77;;;;;;;;;;5083080;28;20409;-74
2021/12/15 15:27:02;;;;;;;27.87;8.93;;;;;;;;;;5084035;28;20508;-74
2021/12/15 15:29:41;;;;;;;18.20;7.70;;;;;;;;;;5081207;28;20433;-74
2021/12/15 15:32:08;;;;;;;28.50;9.10;;;;;;;;;;5082983;28;20523;-77
2021/12/15 15:34:34;;;;;;;25.70;8.50;;;;;;;;;;5087693;28;20501;-77
2021/12/15 15:37:09;;;;;;;19.17;7.20;;;;;;;;;;5072267;28;20970;-77
2021/12/15 15:39:35;;;;;;;19.90;7.10;;;;;;;;;;5079521;28;20880;-78
2021/12/15 15:42:03;;;;;;;18.63;8.27;;;;;;;;;;5077002;28;20746;-77
2021/12/15 15:44:34;;;;;;;17.70;7.10;;;;;;;;;;5082057;28;20765;-78
2021/12/15 15:47:00;;;;;;;493.00;50.50;;;;;;;;;;5077062;28;20425;-75
2021/12/15 15:49:27;;;;;;;19.23;7.70;;;;;;;;;;5078779;28;20977;-75
2021/12/15 15:51:53;;;;;;;24.17;7.30;;;;;;;;;;5076744;28;20417;-75
2021/12/15 15:54:22;;;;;;;16.97;6.10;;;;;;;;;;5091720;28;20448;-75
2021/12/15 15:56:49;;;;;;;12.87;5.10;;;;;;;;;;5092013;28;20459;-76
2021/12/15 15:59:19;;;;;;;18.47;5.57;;;;;;;;;;5087481;28;20418;-75